Pietersburg, South Africa
Current Conditions -  °F | °C
As of 1:00 AM on Saturday 20 Dec 2014 (Local Time) from FAPP Reporting Station
NA  
Wind Chill: 66°   Ceiling: NA
Heat Index: 66°   Visibility: NA
Dew Point: 63°   Wind: 5mph
Humidity: 88%   Direction: 60°ENE
Pressure: 30.06"   Gusts: NA
Location:  23.89°S, 29.45°E
Report Text: FAPP 192300Z AUTO 06004KT //// // ////// 19/17 Q1018
Loading
Personal Weather Stations






























Interactive Weather Map New forecast layout! Learn more

10-Day Weather Forecast

Advertisements
Track Severe Weather on mobile